Aérodrome :
LOGIN :

S'inscrire | Disclaimer

   EN    FR    IT 

 










Légende :    VFR   VFR Marginal   IFR   IFR Intensif   IFR Très Intensif
Visi : 
Plafond : 
>= 8 km
>= 3000ft
5 à 8 km
1000 à 3000 ft
1500m à 5 km
500 à 1000 ft
800 à 1500m
200 à 500 ft
< 800m
< 200 ft
Symboles :   Orages  Brouillard  Fortes neiges  Fortes précipitations  Vent > 20 kt
SIGMETs :   Divers  Orages  Givrage  Turbulence  Onde Orograph.  Cendres Volcan.







- Altitude de l'aérodrome : 101 ft
- Code IATA : HAD


ESMT - Halmstad

DERNIER METAR :
  • 190450Z AUTO 23007KT 1400 R01/P2000N R19/P2000N +UP FEW004/// BKN025/// 05/04 Q1006

METARs EXPIRÉS :
  • 190420Z AUTO 23007KT 2100 -DZ FEW016/// SCT036/// 05/04 Q1006 REUP
  • 190350Z AUTO 24008KT 2600 UP FEW033/// SCT042/// BKN048/// 05/04 Q1006
  • 190320Z AUTO 23007KT 3400 BR FEW035/// OVC041/// 05/04 Q1007
  • 190250Z AUTO 24009KT 4400 BR OVC045/// 06/04 Q1007
  • 190220Z AUTO 23011KT 5000 BR OVC045/// 06/04 Q1008

TAF TAF ESMT
Valide du 19 à 04h jusqu'au 19 à 12h UTC


190324Z 1904/1912 22008KT 6000 BKN030
BECMG 1904/1906 3000 RADZ BR BKN004
BECMG 1906/1908 9999 NSW SCT020
TEMPO 1908/1912 24018G28KT SHRA BKN006 SCT020CB
Pas de NOTAMs connus pour ce terrain.



MET'MAP, la Météo Aéronautique d'un coup d'oeil ! - Copyright ORBIFLY Décembre 2007 - Disclaimer

ORBIFLY MET'MAP TEAM :

Programmation & Développement : Alexandra Zaïnal
Conception & Développement : Baudouin d'Aumeries
Co-Programmation & Développement : Marc-Olivier Méhu
Soutien technique & logistique : Manuel Goepfert

Contact : metmap@orbifly.com




SOURCES & CREDITS :

   NOAA